createdAt,value
2018-07-05T00:01:48.560Z,99555.24
2018-07-05T00:04:35.192Z,99564.28
2018-07-05T00:07:21.756Z,99553.97
2018-07-05T00:10:08.268Z,99552.28
2018-07-05T00:12:54.960Z,99556.73
2018-07-05T00:15:41.484Z,99553.09
2018-07-05T00:18:28.051Z,99546.61
2018-07-05T00:21:14.452Z,99550.44
2018-07-05T00:24:01.043Z,99544.53
2018-07-05T00:26:47.563Z,99539.01
2018-07-05T00:29:34.113Z,99535.44
2018-07-05T00:32:20.731Z,99533.75
2018-07-05T00:35:07.371Z,99533.48
2018-07-05T00:37:54.070Z,99530.88
2018-07-05T00:40:40.719Z,99528.62
2018-07-05T00:43:27.143Z,99531.88
2018-07-05T00:46:13.617Z,99529.11
2018-07-05T00:49:00.252Z,99527.63
2018-07-05T00:51:46.868Z,99520.00
2018-07-05T00:54:33.537Z,99516.42
2018-07-05T00:57:20.078Z,99522.21
2018-07-05T01:00:06.577Z,99531.39
2018-07-05T01:02:53.208Z,99439.09
2018-07-05T01:05:39.644Z,99529.64
2018-07-05T01:08:26.069Z,99532.52
2018-07-05T01:11:12.738Z,99541.37
2018-07-05T01:13:59.332Z,99539.48
2018-07-05T01:16:45.939Z,99536.80
2018-07-05T01:19:32.441Z,99534.23
2018-07-05T01:22:19.124Z,99537.08
2018-07-05T01:25:05.638Z,99538.23
2018-07-05T01:27:52.285Z,99544.16
2018-07-05T01:30:38.891Z,99541.70
2018-07-05T01:33:25.538Z,99547.27
2018-07-05T01:36:12.145Z,99548.08
2018-07-05T01:38:58.791Z,99552.78
2018-07-05T01:41:45.478Z,99553.17
2018-07-05T01:44:31.996Z,99567.72
2018-07-05T01:47:18.604Z,99564.08
2018-07-05T01:50:05.276Z,99566.72
2018-07-05T01:52:51.904Z,99568.45
2018-07-05T01:55:38.541Z,99563.70
2018-07-05T01:58:25.040Z,99567.08
2018-07-05T02:01:11.662Z,99570.10
2018-07-05T02:03:58.248Z,99568.72
2018-07-05T02:06:44.947Z,99570.22
2018-07-05T02:09:31.571Z,99571.48
2018-07-05T02:12:18.124Z,99569.47
2018-07-05T02:15:04.580Z,99569.81
2018-07-05T02:17:51.235Z,99570.70
2018-07-05T02:20:37.896Z,99574.59
2018-07-05T02:23:24.513Z,99563.88
2018-07-05T02:26:11.001Z,99563.25
2018-07-05T02:28:57.680Z,99568.95
2018-07-05T02:31:44.308Z,99569.27
2018-07-05T02:34:30.990Z,99569.70
2018-07-05T02:37:22.761Z,99567.72
2018-07-05T02:40:09.416Z,99572.66
2018-07-05T02:42:55.908Z,99574.61
2018-07-05T02:45:42.544Z,99577.98
2018-07-05T02:48:29.152Z,99577.65
2018-07-05T02:51:15.807Z,99577.85
2018-07-05T02:54:02.275Z,99582.59
2018-07-05T02:56:48.910Z,99583.83
2018-07-05T02:59:35.550Z,99578.52
2018-07-05T03:02:22.205Z,99579.05
2018-07-05T03:05:08.592Z,99588.83
2018-07-05T03:07:55.221Z,99586.20
2018-07-05T03:10:41.871Z,99589.47
2018-07-05T03:13:28.388Z,99483.77
2018-07-05T03:16:14.968Z,99597.97
2018-07-05T03:19:01.675Z,99594.34
2018-07-05T03:21:48.241Z,99594.10
2018-07-05T03:24:34.909Z,99598.84
2018-07-05T03:27:21.600Z,99591.02
2018-07-05T03:30:08.257Z,99582.08
2018-07-05T03:32:54.759Z,99582.14
2018-07-05T03:35:41.296Z,99585.04
2018-07-05T03:38:27.903Z,99593.48
2018-07-05T03:41:14.553Z,99592.50
2018-07-05T03:44:01.252Z,99600.64
2018-07-05T03:46:47.625Z,99599.50
2018-07-05T03:49:34.353Z,99597.02
2018-07-05T03:52:20.868Z,99594.66
2018-07-05T03:55:07.516Z,99596.77
2018-07-05T03:57:54.132Z,99597.84
2018-07-05T04:00:40.738Z,99596.89
2018-07-05T04:03:27.137Z,99594.79
2018-07-05T04:06:13.777Z,99593.23
2018-07-05T04:09:00.415Z,99594.25
2018-07-05T04:11:47.052Z,99592.21
2018-07-05T04:14:33.601Z,99597.89
2018-07-05T04:17:20.164Z,99505.66
2018-07-05T04:20:06.728Z,99593.73
2018-07-05T04:22:53.273Z,99595.61
2018-07-05T04:25:39.896Z,99590.55
2018-07-05T04:28:26.513Z,99596.53
2018-07-05T04:31:13.197Z,99595.05
2018-07-05T04:33:59.691Z,99598.02
2018-07-05T04:36:46.398Z,99602.75
2018-07-05T04:39:32.863Z,99600.17
2018-07-05T04:42:19.517Z,99601.48
2018-07-05T04:45:06.153Z,99601.69
2018-07-05T04:47:52.781Z,99595.97
2018-07-05T04:50:39.443Z,99603.80
2018-07-05T04:53:25.996Z,99595.13
2018-07-05T04:56:12.463Z,99601.29
2018-07-05T04:58:59.126Z,99600.14
2018-07-05T05:01:45.814Z,99600.38
2018-07-05T05:04:32.356Z,99592.64
2018-07-05T05:07:18.974Z,99591.38
2018-07-05T05:10:05.531Z,99600.62
2018-07-05T05:12:52.023Z,99599.37
2018-07-05T05:15:38.688Z,99597.94
2018-07-05T05:18:25.336Z,99599.89
2018-07-05T05:21:11.841Z,99605.00
2018-07-05T05:23:58.520Z,99605.43
2018-07-05T05:26:45.209Z,99600.21
2018-07-05T05:29:31.828Z,99598.13
2018-07-05T05:32:18.426Z,99596.33
2018-07-05T05:35:04.908Z,99593.88
2018-07-05T05:37:51.573Z,99599.54
2018-07-05T05:40:38.229Z,99598.41
2018-07-05T05:43:24.893Z,99596.30
2018-07-05T05:46:11.568Z,99590.90
2018-07-05T05:48:58.093Z,99590.87
2018-07-05T05:51:44.649Z,99588.99
2018-07-05T05:54:31.284Z,99593.12
2018-07-05T05:57:17.896Z,99589.84
2018-07-05T06:00:04.601Z,99579.84
2018-07-05T06:02:51.092Z,99598.80
2018-07-05T06:05:37.772Z,99589.95
2018-07-05T06:08:24.849Z,99591.33
2018-07-05T06:11:11.635Z,99602.76
2018-07-05T06:13:58.136Z,99591.81
2018-07-05T06:16:44.838Z,99597.66
2018-07-05T06:19:31.641Z,99593.94
2018-07-05T06:22:18.288Z,99600.87
2018-07-05T06:25:04.896Z,99597.86
2018-07-05T06:27:51.551Z,99607.41
2018-07-05T06:30:38.212Z,99600.50
2018-07-05T06:33:24.867Z,99600.04
2018-07-05T06:36:11.415Z,99602.42
2018-07-05T06:38:58.112Z,99607.20
2018-07-05T06:41:44.751Z,99601.77
2018-07-05T06:44:31.268Z,99599.09
2018-07-05T06:47:17.887Z,99596.54
2018-07-05T06:50:04.662Z,99598.30
2018-07-05T06:52:51.389Z,99606.66
2018-07-05T06:55:37.868Z,99599.68
2018-07-05T06:58:24.551Z,99608.02
2018-07-05T07:01:11.066Z,99513.31
2018-07-05T07:03:57.728Z,99594.20
2018-07-05T07:06:44.278Z,99594.64
2018-07-05T07:09:30.948Z,99592.81
2018-07-05T07:12:17.648Z,99588.45
2018-07-05T07:15:04.314Z,99592.08
2018-07-05T07:17:51.048Z,99589.13
2018-07-05T07:20:38.506Z,99592.57
2018-07-05T07:23:25.023Z,99591.33
2018-07-05T07:26:11.697Z,99589.85
2018-07-05T07:28:58.321Z,99587.66
2018-07-05T07:31:45.062Z,99594.06
2018-07-05T07:34:31.758Z,99593.77
2018-07-05T07:37:18.383Z,99588.13
2018-07-05T07:40:05.116Z,99583.91
2018-07-05T07:42:39.308Z,99584.09
2018-07-05T07:45:07.421Z,99579.31
2018-07-05T07:47:35.526Z,99577.44
2018-07-05T07:50:03.604Z,99574.16
2018-07-05T07:52:31.712Z,99579.85
2018-07-05T07:54:59.776Z,99554.30
2018-07-05T07:57:27.920Z,99576.20
2018-07-05T07:59:55.995Z,99574.27
2018-07-05T08:02:24.099Z,99565.78
2018-07-05T08:04:52.193Z,99565.78
2018-07-05T08:07:20.299Z,99564.65
2018-07-05T08:09:48.361Z,99574.36
2018-07-05T08:12:16.489Z,99571.90
2018-07-05T08:14:44.634Z,99570.17
2018-07-05T08:17:12.710Z,99570.64
2018-07-05T08:19:40.827Z,99569.14
2018-07-05T08:22:08.968Z,99570.08
2018-07-05T08:24:37.078Z,99511.09
2018-07-05T08:27:05.182Z,99552.13
2018-07-05T08:29:33.300Z,99556.28
2018-07-05T08:32:01.433Z,99561.91
2018-07-05T08:34:29.573Z,99551.53
2018-07-05T08:36:57.640Z,99558.95
2018-07-05T08:39:25.761Z,99557.92
2018-07-05T08:41:54.001Z,99555.20
2018-07-05T08:44:22.108Z,99550.58
2018-07-05T08:46:50.176Z,99547.98
2018-07-05T08:49:18.292Z,99548.64
2018-07-05T08:51:46.417Z,99552.12
2018-07-05T08:54:14.818Z,99547.20
2018-07-05T08:56:43.000Z,99474.39
2018-07-05T08:59:11.113Z,99547.73
2018-07-05T09:01:39.256Z,99541.38
2018-07-05T09:04:07.339Z,99538.71
2018-07-05T09:06:35.400Z,99541.60
2018-07-05T09:09:03.720Z,99536.34
2018-07-05T09:11:31.791Z,99535.30
2018-07-05T09:13:59.935Z,99537.31
2018-07-05T09:16:28.000Z,99538.34
2018-07-05T09:18:56.106Z,99534.09
2018-07-05T09:21:24.237Z,99531.84
2018-07-05T09:23:52.356Z,99530.80
2018-07-05T09:26:20.490Z,99526.70
2018-07-05T09:28:48.580Z,99524.16
2018-07-05T09:31:16.808Z,99529.44
2018-07-05T09:33:44.876Z,99525.44
2018-07-05T09:36:12.928Z,99519.67
2018-07-05T09:38:41.074Z,99516.07
2018-07-05T09:41:09.143Z,99514.48
2018-07-05T09:43:37.212Z,99518.45
2018-07-05T09:46:05.376Z,99506.70
2018-07-05T09:48:33.449Z,99505.29
2018-07-05T09:51:01.601Z,99503.06
2018-07-05T09:53:29.684Z,99510.02
2018-07-05T09:55:57.770Z,99487.14
2018-07-05T09:58:25.903Z,99498.87
2018-07-05T10:00:54.053Z,99502.14
2018-07-05T10:03:22.986Z,99506.39
2018-07-05T10:05:51.070Z,99493.45
2018-07-05T10:08:19.707Z,99497.58
2018-07-05T10:10:47.773Z,99500.34
2018-07-05T10:13:15.938Z,99404.63
2018-07-05T10:15:44.011Z,99482.73
2018-07-05T10:18:12.132Z,99484.77
2018-07-05T10:20:40.268Z,99489.16
2018-07-05T10:23:08.519Z,99482.80
2018-07-05T10:25:36.808Z,99474.53
2018-07-05T10:28:04.873Z,99480.41
2018-07-05T10:30:45.237Z,99483.52
2018-07-05T10:33:31.729Z,99483.22
2018-07-05T10:36:06.064Z,99476.38
2018-07-05T10:38:34.132Z,99478.45
2018-07-05T10:41:14.486Z,99478.45
2018-07-05T10:44:00.977Z,99474.52
2018-07-05T10:46:47.704Z,99480.05
2018-07-05T10:49:34.255Z,99476.75
2018-07-05T10:52:20.948Z,99469.55
2018-07-05T10:55:07.488Z,99466.71
2018-07-05T10:57:54.156Z,99461.11
2018-07-05T11:00:40.840Z,99449.25
2018-07-05T11:03:27.500Z,99456.33
2018-07-05T11:06:14.268Z,99460.16
2018-07-05T11:09:00.897Z,99449.78
2018-07-05T11:11:47.903Z,99453.61
2018-07-05T11:14:34.535Z,99440.16
2018-07-05T11:17:21.033Z,99446.37
2018-07-05T11:20:07.540Z,99431.56
2018-07-05T11:22:54.217Z,99369.45
2018-07-05T11:25:40.862Z,99425.58
2018-07-05T11:28:27.404Z,99424.06
2018-07-05T11:31:14.092Z,99428.05
2018-07-05T11:34:00.574Z,99428.56
2018-07-05T11:36:47.253Z,99426.88
2018-07-05T11:39:33.859Z,99426.47
2018-07-05T11:42:20.537Z,99414.92
2018-07-05T11:45:07.065Z,99407.58
2018-07-05T11:47:53.675Z,99411.30
2018-07-05T11:50:40.268Z,99414.67
2018-07-05T11:53:26.891Z,99412.86
2018-07-05T11:56:13.349Z,99395.21
2018-07-05T11:58:59.924Z,99409.25
2018-07-05T12:01:46.432Z,99406.51
2018-07-05T12:04:33.112Z,99400.66
2018-07-05T12:07:19.683Z,99410.62
2018-07-05T12:10:06.269Z,99393.42
2018-07-05T12:12:52.772Z,99391.58
2018-07-05T12:15:39.384Z,99393.84
2018-07-05T12:18:26.086Z,99378.80
2018-07-05T12:21:12.713Z,99395.21
2018-07-05T12:23:59.251Z,99385.89
2018-07-05T12:26:45.984Z,99379.34
2018-07-05T12:29:32.607Z,99382.27
2018-07-05T12:32:19.134Z,99378.05
2018-07-05T12:35:05.974Z,99374.59
2018-07-05T12:37:52.472Z,99359.66
2018-07-05T12:40:39.220Z,99367.83
2018-07-05T12:43:25.813Z,99363.50
2018-07-05T12:46:12.456Z,99362.84
2018-07-05T12:48:59.080Z,99365.75
2018-07-05T12:51:45.644Z,99360.91
2018-07-05T12:54:32.224Z,99351.94
2018-07-05T12:57:18.861Z,99351.17
2018-07-05T13:00:05.456Z,99357.51
2018-07-05T13:02:52.136Z,99360.89
2018-07-05T13:05:38.641Z,99348.31
2018-07-05T13:08:25.382Z,99343.08
2018-07-05T13:11:12.032Z,99342.08
2018-07-05T13:13:58.732Z,99341.88
2018-07-05T13:16:45.242Z,99260.16
2018-07-05T13:19:31.752Z,99280.05
2018-07-05T13:22:18.537Z,99328.69
2018-07-05T13:25:05.245Z,99330.89
2018-07-05T13:27:51.767Z,99330.11
2018-07-05T13:30:38.308Z,99335.93
2018-07-05T13:33:24.869Z,99324.34
2018-07-05T13:36:11.508Z,99330.97
2018-07-05T13:38:58.165Z,99330.53
2018-07-05T13:41:44.795Z,99340.99
2018-07-05T13:44:31.380Z,99338.41
2018-07-05T13:47:18.167Z,99335.98
2018-07-05T13:50:04.744Z,99341.16
2018-07-05T13:52:51.360Z,99335.38
2018-07-05T13:55:38.113Z,99341.77
2018-07-05T13:58:24.892Z,99335.16
2018-07-05T14:01:11.465Z,99343.98
2018-07-05T14:03:58.131Z,99346.14
2018-07-05T14:06:44.788Z,99344.80
2018-07-05T14:09:31.503Z,99347.22
2018-07-05T14:12:18.108Z,99346.05
2018-07-05T14:15:04.752Z,99343.23
2018-07-05T14:17:51.412Z,99332.36
2018-07-05T14:20:38.936Z,99341.18
2018-07-05T14:23:25.592Z,99333.19
2018-07-05T14:26:12.229Z,99259.45
2018-07-05T14:28:58.834Z,99334.76
2018-07-05T14:31:45.604Z,99338.19
2018-07-05T14:34:32.111Z,99344.75
2018-07-05T14:37:19.304Z,99344.56
2018-07-05T14:40:05.925Z,99352.59
2018-07-05T14:42:52.640Z,99341.93
2018-07-05T14:45:39.173Z,99346.36
2018-07-05T14:48:25.837Z,99345.39
2018-07-05T14:51:12.394Z,99342.17
2018-07-05T14:53:58.893Z,99342.53
2018-07-05T14:56:45.560Z,99345.89
2018-07-05T14:59:32.192Z,99347.39
2018-07-05T15:02:18.893Z,99345.39
2018-07-05T15:05:05.543Z,99340.95
2018-07-05T15:07:52.055Z,99339.18
2018-07-05T15:10:38.676Z,99346.30
2018-07-05T15:13:25.300Z,99339.55
2018-07-05T15:16:11.984Z,99339.32
2018-07-05T15:18:58.749Z,99338.74
2018-07-05T15:21:45.404Z,99338.57
2018-07-05T15:24:32.473Z,99341.91
2018-07-05T15:27:18.987Z,99339.48
2018-07-05T15:30:05.601Z,99334.70
2018-07-05T15:32:52.496Z,99341.19
2018-07-05T15:35:39.088Z,99341.22
2018-07-05T15:38:25.739Z,99256.23
2018-07-05T15:41:12.426Z,99346.06
2018-07-05T15:43:59.056Z,99346.41
2018-07-05T15:46:45.711Z,99351.52
2018-07-05T15:49:32.376Z,99352.54
2018-07-05T15:52:18.857Z,99353.63
2018-07-05T15:55:05.533Z,99350.98
2018-07-05T15:57:52.060Z,99353.77
2018-07-05T16:00:38.693Z,99338.94
2018-07-05T16:03:25.301Z,99358.55
2018-07-05T16:06:11.944Z,99353.80
2018-07-05T16:08:58.600Z,99358.98
2018-07-05T16:11:45.262Z,99355.91
2018-07-05T16:14:31.714Z,99359.25
2018-07-05T16:17:18.369Z,99356.13
2018-07-05T16:20:04.900Z,99363.59
2018-07-05T16:22:51.520Z,99368.53
2018-07-05T16:25:38.189Z,99361.52
2018-07-05T16:28:24.831Z,99365.56
2018-07-05T16:31:11.318Z,99369.48
2018-07-05T16:33:57.888Z,99360.56
2018-07-05T16:36:44.512Z,99359.16
2018-07-05T16:39:31.135Z,99360.35
2018-07-05T16:42:17.891Z,99359.33
2018-07-05T16:45:04.292Z,99354.34
2018-07-05T16:47:51.057Z,99362.44
2018-07-05T16:50:37.585Z,99369.00
2018-07-05T16:53:24.208Z,99367.05
2018-07-05T16:56:10.850Z,99372.05
2018-07-05T16:58:57.523Z,99381.72
2018-07-05T17:01:44.064Z,99382.11
2018-07-05T17:04:30.687Z,99377.66
2018-07-05T17:07:17.319Z,99374.97
2018-07-05T17:10:03.925Z,99377.23
2018-07-05T17:12:50.452Z,99376.11
2018-07-05T17:15:37.025Z,99373.61
2018-07-05T17:18:23.660Z,99374.02
2018-07-05T17:21:10.301Z,99381.50
2018-07-05T17:23:56.792Z,99381.56
2018-07-05T17:26:43.342Z,99384.80
2018-07-05T17:29:29.983Z,99376.75
2018-07-05T17:32:16.688Z,99386.10
2018-07-05T17:35:03.353Z,99381.88
2018-07-05T17:37:50.054Z,99380.78
2018-07-05T17:40:36.676Z,99383.92
2018-07-05T17:43:23.352Z,99386.44
2018-07-05T17:46:10.051Z,99382.89
2018-07-05T17:48:56.711Z,99387.55
2018-07-05T17:51:43.362Z,99392.45
2018-07-05T17:54:30.037Z,99397.60
2018-07-05T17:57:16.584Z,99392.33
2018-07-05T18:00:03.299Z,99402.53
2018-07-05T18:02:49.835Z,99391.44
2018-07-05T18:05:36.436Z,99392.12
2018-07-05T18:08:23.112Z,99392.09
2018-07-05T18:11:09.677Z,99397.86
2018-07-05T18:13:56.204Z,99399.36
2018-07-05T18:16:42.807Z,99399.92
2018-07-05T18:19:29.493Z,99403.16
2018-07-05T18:22:16.152Z,99409.92
2018-07-05T18:25:02.778Z,99411.06
2018-07-05T18:27:49.525Z,99416.77
2018-07-05T18:30:35.995Z,99420.02
2018-07-05T18:33:22.563Z,99427.79
2018-07-05T18:36:09.200Z,99425.15
2018-07-05T18:38:55.871Z,99423.55
2018-07-05T18:41:42.432Z,99433.55
2018-07-05T18:44:29.006Z,99443.67
2018-07-05T18:47:15.662Z,99440.55
2018-07-05T18:50:02.301Z,99443.78
2018-07-05T18:52:48.915Z,99445.41
2018-07-05T18:55:35.601Z,99450.30
2018-07-05T18:58:22.079Z,99455.69
2018-07-05T19:01:08.678Z,99456.42
2018-07-05T19:03:55.417Z,99457.84
2018-07-05T19:06:41.998Z,99455.31
2018-07-05T19:09:28.519Z,99455.45
2018-07-05T19:12:15.206Z,99450.09
2018-07-05T19:15:01.756Z,99451.59
2018-07-05T19:17:48.379Z,99453.70
2018-07-05T19:20:35.028Z,99361.86
2018-07-05T19:23:21.711Z,99456.80
2018-07-05T19:26:08.423Z,99458.42
2018-07-05T19:28:54.937Z,99465.52
2018-07-05T19:31:41.569Z,99461.23
2018-07-05T19:34:28.300Z,99463.25
2018-07-05T19:37:14.841Z,99460.22
2018-07-05T19:40:01.454Z,99460.78
2018-07-05T19:42:48.005Z,99465.76
2018-07-05T19:45:34.713Z,99475.41
2018-07-05T19:48:21.208Z,99470.50
2018-07-05T19:51:07.812Z,99478.05
2018-07-05T19:53:54.469Z,99476.10
2018-07-05T19:56:41.024Z,99474.48
2018-07-05T19:59:27.388Z,99473.69
2018-07-05T20:02:14.116Z,99473.46
2018-07-05T20:05:00.666Z,99477.63
2018-07-05T20:07:47.325Z,99476.34
2018-07-05T20:10:33.953Z,99471.75
2018-07-05T20:13:20.769Z,99468.05
2018-07-05T20:16:07.213Z,99471.97
2018-07-05T20:18:53.888Z,99476.27
2018-07-05T20:21:40.392Z,99479.30
2018-07-05T20:24:27.097Z,99473.95
2018-07-05T20:27:13.721Z,99478.25
2018-07-05T20:30:00.499Z,99480.43
2018-07-05T20:32:47.008Z,99485.64
2018-07-05T20:35:33.737Z,99490.27
2018-07-05T20:38:20.287Z,99482.36
2018-07-05T20:41:06.993Z,99484.55
2018-07-05T20:43:53.623Z,99486.17
2018-07-05T20:46:40.160Z,99483.17
2018-07-05T20:49:26.778Z,99481.05
2018-07-05T20:52:13.572Z,99480.83
2018-07-05T20:55:00.082Z,99476.19
2018-07-05T20:57:46.591Z,99478.61
2018-07-05T21:00:33.216Z,99479.14
2018-07-05T21:03:19.851Z,99471.73
2018-07-05T21:06:06.446Z,99480.05
2018-07-05T21:08:53.096Z,99467.96
2018-07-05T21:11:39.696Z,99467.37
2018-07-05T21:14:26.416Z,99470.95
2018-07-05T21:17:13.160Z,99469.68
2018-07-05T21:19:59.755Z,99476.41
2018-07-05T21:22:46.419Z,99468.44
2018-07-05T21:25:32.928Z,99463.94
2018-07-05T21:28:19.512Z,99467.70
2018-07-05T21:31:06.173Z,99463.00
2018-07-05T21:33:52.820Z,99469.56
2018-07-05T21:36:39.252Z,99466.43
2018-07-05T21:39:25.856Z,99467.02
2018-07-05T21:42:12.544Z,99467.13
2018-07-05T21:44:59.097Z,99463.41
2018-07-05T21:47:45.791Z,99456.22
2018-07-05T21:50:32.429Z,99472.48
2018-07-05T21:53:19.092Z,99480.29
2018-07-05T21:56:05.749Z,99480.83
2018-07-05T21:58:52.259Z,99485.83
2018-07-05T22:01:38.948Z,99484.72
2018-07-05T22:04:25.460Z,99476.73
2018-07-05T22:07:12.017Z,99473.76
2018-07-05T22:09:58.611Z,99478.12
2018-07-05T22:12:45.320Z,99478.88
2018-07-05T22:15:31.915Z,99375.87
2018-07-05T22:18:23.592Z,99477.48
2018-07-05T22:21:11.410Z,99477.16
2018-07-05T22:24:03.059Z,99476.69
2018-07-05T22:26:49.720Z,99481.00
2018-07-05T22:29:41.512Z,99483.34
2018-07-05T22:32:28.152Z,99483.70
2018-07-05T22:35:14.820Z,99484.92
2018-07-05T22:38:01.476Z,99479.72
2018-07-05T22:40:47.884Z,99484.39
2018-07-05T22:43:34.488Z,99479.82
2018-07-05T22:46:21.036Z,99480.59
2018-07-05T22:49:07.568Z,99485.30
2018-07-05T22:51:54.112Z,99481.02
2018-07-05T22:54:40.648Z,99475.80
2018-07-05T22:57:27.185Z,99476.06
2018-07-05T23:00:13.717Z,99475.58
2018-07-05T23:03:00.396Z,99470.05
2018-07-05T23:05:46.984Z,99465.06
2018-07-05T23:08:33.692Z,99468.18
2018-07-05T23:11:20.269Z,99464.26
2018-07-05T23:14:06.960Z,99468.83
2018-07-05T23:16:53.372Z,99469.84
2018-07-05T23:19:40.192Z,99461.20
2018-07-05T23:22:26.704Z,99471.38
2018-07-05T23:25:13.361Z,99465.85
2018-07-05T23:27:59.888Z,99461.87
2018-07-05T23:30:46.597Z,99458.94
2018-07-05T23:33:33.060Z,99458.72
2018-07-05T23:36:19.721Z,99459.70
2018-07-05T23:39:06.454Z,99458.23
2018-07-05T23:41:52.876Z,99462.05
2018-07-05T23:44:39.408Z,99460.58
2018-07-05T23:47:25.968Z,99465.72
2018-07-05T23:50:12.464Z,99466.20
2018-07-05T23:52:59.026Z,99466.04
2018-07-05T23:55:45.541Z,99466.13
2018-07-05T23:58:32.190Z,99462.81
